sensor_id;sensor_type;location;lat;lon;timestamp;P1;durP1;ratioP1;P2;durP2;ratioP2
3683;SDS011;1858;48.716;9.648;2023-07-29T00:13:12;1.20;;;0.80;;
3683;SDS011;1858;48.716;9.648;2023-07-29T00:15:40;1.20;;;0.70;;
3683;SDS011;1858;48.716;9.648;2023-07-29T00:18:08;2.70;;;1.25;;
3683;SDS011;1858;48.716;9.648;2023-07-29T00:20:37;1.50;;;1.00;;
3683;SDS011;1858;48.716;9.648;2023-07-29T07:17:05;4.77;;;2.73;;
3683;SDS011;1858;48.716;9.648;2023-07-29T07:19:34;2.90;;;1.20;;
3683;SDS011;1858;48.716;9.648;2023-07-29T07:44:12;4.30;;;0.80;;
3683;SDS011;1858;48.716;9.648;2023-07-29T07:46:43;2.33;;;0.70;;
3683;SDS011;1858;48.716;9.648;2023-07-29T07:49:11;1.10;;;0.50;;
3683;SDS011;1858;48.716;9.648;2023-07-29T07:51:40;3.93;;;0.90;;
3683;SDS011;1858;48.716;9.648;2023-07-29T11:12:40;1.90;;;0.80;;
3683;SDS011;1858;48.716;9.648;2023-07-29T11:15:25;2.00;;;0.67;;
3683;SDS011;1858;48.716;9.648;2023-07-29T11:25:40;1.90;;;0.50;;
3683;SDS011;1858;48.716;9.648;2023-07-29T11:28:08;1.60;;;0.60;;
3683;SDS011;1858;48.716;9.648;2023-07-29T11:30:39;1.70;;;0.60;;
3683;SDS011;1858;48.716;9.648;2023-07-29T11:33:08;2.10;;;0.70;;
3683;SDS011;1858;48.716;9.648;2023-07-29T11:38:05;2.10;;;0.90;;
3683;SDS011;1858;48.716;9.648;2023-07-29T11:40:34;1.50;;;0.60;;
3683;SDS011;1858;48.716;9.648;2023-07-29T11:43:02;1.43;;;0.50;;
3683;SDS011;1858;48.716;9.648;2023-07-29T11:45:31;1.93;;;0.73;;
3683;SDS011;1858;48.716;9.648;2023-07-29T11:48:01;1.60;;;0.70;;
3683;SDS011;1858;48.716;9.648;2023-07-29T11:50:30;1.50;;;0.50;;
3683;SDS011;1858;48.716;9.648;2023-07-29T11:52:58;1.40;;;0.40;;
3683;SDS011;1858;48.716;9.648;2023-07-29T11:55:28;1.60;;;0.77;;
3683;SDS011;1858;48.716;9.648;2023-07-29T11:57:56;2.13;;;0.73;;
3683;SDS011;1858;48.716;9.648;2023-07-29T12:00:25;1.53;;;0.53;;
3683;SDS011;1858;48.716;9.648;2023-07-29T12:02:54;1.83;;;0.70;;
3683;SDS011;1858;48.716;9.648;2023-07-29T12:08:11;1.70;;;0.87;;
3683;SDS011;1858;48.716;9.648;2023-07-29T12:10:40;1.50;;;0.60;;
3683;SDS011;1858;48.716;9.648;2023-07-29T12:13:09;1.60;;;0.50;;
3683;SDS011;1858;48.716;9.648;2023-07-29T12:15:38;1.50;;;0.70;;
3683;SDS011;1858;48.716;9.648;2023-07-29T12:18:07;1.60;;;0.60;;
3683;SDS011;1858;48.716;9.648;2023-07-29T12:40:32;1.63;;;0.80;;
3683;SDS011;1858;48.716;9.648;2023-07-29T12:43:02;2.17;;;1.00;;
3683;SDS011;1858;48.716;9.648;2023-07-29T12:45:35;2.57;;;0.60;;
3683;SDS011;1858;48.716;9.648;2023-07-29T12:48:05;1.73;;;0.77;;
3683;SDS011;1858;48.716;9.648;2023-07-29T12:50:34;1.57;;;0.77;;
3683;SDS011;1858;48.716;9.648;2023-07-29T12:53:04;1.70;;;0.80;;
3683;SDS011;1858;48.716;9.648;2023-07-29T12:55:34;2.20;;;0.90;;
3683;SDS011;1858;48.716;9.648;2023-07-29T13:00:30;2.00;;;1.00;;
3683;SDS011;1858;48.716;9.648;2023-07-29T13:10:21;1.77;;;0.80;;
3683;SDS011;1858;48.716;9.648;2023-07-29T13:12:50;1.90;;;0.90;;
3683;SDS011;1858;48.716;9.648;2023-07-29T13:15:18;1.80;;;0.80;;
3683;SDS011;1858;48.716;9.648;2023-07-29T13:27:58;2.47;;;0.90;;
3683;SDS011;1858;48.716;9.648;2023-07-29T13:37:49;2.90;;;0.90;;
3683;SDS011;1858;48.716;9.648;2023-07-29T13:47:41;1.70;;;0.80;;
3683;SDS011;1858;48.716;9.648;2023-07-29T14:02:28;2.40;;;0.83;;
3683;SDS011;1858;48.716;9.648;2023-07-29T14:04:57;1.93;;;0.70;;
3683;SDS011;1858;48.716;9.648;2023-07-29T14:07:26;2.57;;;1.20;;
3683;SDS011;1858;48.716;9.648;2023-07-29T14:09:54;1.80;;;0.60;;
3683;SDS011;1858;48.716;9.648;2023-07-29T14:12:22;2.00;;;1.10;;
3683;SDS011;1858;48.716;9.648;2023-07-29T14:14:51;2.23;;;1.10;;
3683;SDS011;1858;48.716;9.648;2023-07-29T14:17:19;1.43;;;0.60;;
3683;SDS011;1858;48.716;9.648;2023-07-29T14:19:47;4.13;;;1.03;;
3683;SDS011;1858;48.716;9.648;2023-07-29T14:22:16;3.03;;;1.17;;
3683;SDS011;1858;48.716;9.648;2023-07-29T14:24:44;2.63;;;1.03;;
3683;SDS011;1858;48.716;9.648;2023-07-29T14:27:13;3.47;;;1.10;;
3683;SDS011;1858;48.716;9.648;2023-07-29T14:29:43;1.97;;;0.63;;
3683;SDS011;1858;48.716;9.648;2023-07-29T14:32:11;2.93;;;1.33;;
3683;SDS011;1858;48.716;9.648;2023-07-29T15:12:13;1.93;;;1.03;;
3683;SDS011;1858;48.716;9.648;2023-07-29T15:14:41;2.87;;;1.13;;
3683;SDS011;1858;48.716;9.648;2023-07-29T15:17:09;2.73;;;1.03;;
3683;SDS011;1858;48.716;9.648;2023-07-29T15:19:38;2.20;;;1.10;;
3683;SDS011;1858;48.716;9.648;2023-07-29T15:22:06;2.73;;;1.03;;
3683;SDS011;1858;48.716;9.648;2023-07-29T15:24:34;2.40;;;0.90;;
3683;SDS011;1858;48.716;9.648;2023-07-29T15:27:05;2.70;;;1.10;;
3683;SDS011;1858;48.716;9.648;2023-07-29T15:29:33;2.00;;;1.07;;
3683;SDS011;1858;48.716;9.648;2023-07-29T15:32:02;3.73;;;1.40;;
3683;SDS011;1858;48.716;9.648;2023-07-29T15:34:31;2.57;;;1.13;;
3683;SDS011;1858;48.716;9.648;2023-07-29T15:36:59;2.30;;;1.10;;
3683;SDS011;1858;48.716;9.648;2023-07-29T15:39:29;2.73;;;1.30;;
3683;SDS011;1858;48.716;9.648;2023-07-29T15:41:58;1.70;;;1.00;;
3683;SDS011;1858;48.716;9.648;2023-07-29T15:44:26;1.90;;;0.97;;
3683;SDS011;1858;48.716;9.648;2023-07-29T15:46:55;3.17;;;1.30;;
3683;SDS011;1858;48.716;9.648;2023-07-29T17:08:36;3.30;;;1.67;;
3683;SDS011;1858;48.716;9.648;2023-07-29T17:11:05;1.90;;;0.80;;
3683;SDS011;1858;48.716;9.648;2023-07-29T17:13:33;2.87;;;1.27;;
3683;SDS011;1858;48.716;9.648;2023-07-29T17:16:02;3.53;;;1.50;;
3683;SDS011;1858;48.716;9.648;2023-07-29T17:18:30;1.97;;;1.00;;
3683;SDS011;1858;48.716;9.648;2023-07-29T17:20:59;1.90;;;0.90;;
3683;SDS011;1858;48.716;9.648;2023-07-29T17:23:27;2.20;;;1.10;;
3683;SDS011;1858;48.716;9.648;2023-07-29T17:30:51;2.53;;;1.00;;
3683;SDS011;1858;48.716;9.648;2023-07-29T17:33:19;2.20;;;1.10;;
3683;SDS011;1858;48.716;9.648;2023-07-29T17:38:16;2.90;;;1.00;;
3683;SDS011;1858;48.716;9.648;2023-07-29T17:40:47;2.53;;;0.90;;
3683;SDS011;1858;48.716;9.648;2023-07-29T17:43:15;2.70;;;1.10;;
3683;SDS011;1858;48.716;9.648;2023-07-29T17:45:44;3.10;;;1.15;;
3683;SDS011;1858;48.716;9.648;2023-07-29T17:48:12;2.30;;;1.00;;
3683;SDS011;1858;48.716;9.648;2023-07-29T17:53:09;2.65;;;1.30;;
3683;SDS011;1858;48.716;9.648;2023-07-29T20:06:31;2.90;;;2.00;;
3683;SDS011;1858;48.716;9.648;2023-07-29T20:23:45;3.03;;;2.10;;
3683;SDS011;1858;48.716;9.648;2023-07-29T20:26:15;4.90;;;2.53;;
3683;SDS011;1858;48.716;9.648;2023-07-29T20:28:43;4.03;;;2.13;;
3683;SDS011;1858;48.716;9.648;2023-07-29T20:31:12;4.40;;;2.67;;
3683;SDS011;1858;48.716;9.648;2023-07-29T20:33:41;4.20;;;2.30;;
3683;SDS011;1858;48.716;9.648;2023-07-29T20:36:09;3.10;;;2.10;;
3683;SDS011;1858;48.716;9.648;2023-07-29T20:38:38;2.70;;;2.10;;
3683;SDS011;1858;48.716;9.648;2023-07-29T20:41:06;4.33;;;2.17;;
3683;SDS011;1858;48.716;9.648;2023-07-29T20:43:35;2.80;;;1.90;;
3683;SDS011;1858;48.716;9.648;2023-07-29T20:46:04;3.03;;;2.00;;
3683;SDS011;1858;48.716;9.648;2023-07-29T20:48:32;3.43;;;2.57;;
3683;SDS011;1858;48.716;9.648;2023-07-29T20:51:00;2.90;;;2.00;;
3683;SDS011;1858;48.716;9.648;2023-07-29T20:53:29;3.07;;;1.73;;
3683;SDS011;1858;48.716;9.648;2023-07-29T20:55:57;3.97;;;2.80;;
3683;SDS011;1858;48.716;9.648;2023-07-29T20:58:28;6.47;;;2.90;;
3683;SDS011;1858;48.716;9.648;2023-07-29T21:00:58;3.10;;;2.00;;
3683;SDS011;1858;48.716;9.648;2023-07-29T21:03:28;3.40;;;2.17;;
3683;SDS011;1858;48.716;9.648;2023-07-29T21:05:57;3.47;;;1.53;;
3683;SDS011;1858;48.716;9.648;2023-07-29T21:08:25;3.43;;;2.30;;
3683;SDS011;1858;48.716;9.648;2023-07-29T21:10:54;2.93;;;1.80;;
3683;SDS011;1858;48.716;9.648;2023-07-29T21:13:22;6.27;;;2.60;;
3683;SDS011;1858;48.716;9.648;2023-07-29T21:15:51;3.83;;;1.90;;
3683;SDS011;1858;48.716;9.648;2023-07-29T21:18:20;7.27;;;2.23;;
3683;SDS011;1858;48.716;9.648;2023-07-29T21:20:50;3.97;;;2.50;;
3683;SDS011;1858;48.716;9.648;2023-07-29T21:23:18;2.80;;;2.10;;
3683;SDS011;1858;48.716;9.648;2023-07-29T21:25:47;6.53;;;2.80;;
3683;SDS011;1858;48.716;9.648;2023-07-29T21:28:18;4.03;;;2.73;;
3683;SDS011;1858;48.716;9.648;2023-07-29T21:30:47;4.10;;;2.50;;
3683;SDS011;1858;48.716;9.648;2023-07-29T21:33:15;3.07;;;2.13;;
3683;SDS011;1858;48.716;9.648;2023-07-29T21:35:44;4.93;;;2.60;;
3683;SDS011;1858;48.716;9.648;2023-07-29T21:43:07;4.77;;;2.93;;
3683;SDS011;1858;48.716;9.648;2023-07-29T22:54:53;4.05;;;2.90;;
3683;SDS011;1858;48.716;9.648;2023-07-29T23:02:17;4.55;;;2.70;;
3683;SDS011;1858;48.716;9.648;2023-07-29T23:04:47;4.50;;;3.20;;
3683;SDS011;1858;48.716;9.648;2023-07-29T23:07:15;3.97;;;2.90;;
3683;SDS011;1858;48.716;9.648;2023-07-29T23:09:43;6.07;;;2.27;;
3683;SDS011;1858;48.716;9.648;2023-07-29T23:12:12;3.15;;;2.65;;
3683;SDS011;1858;48.716;9.648;2023-07-29T23:19:55;4.95;;;3.00;;
3683;SDS011;1858;48.716;9.648;2023-07-29T23:22:24;3.40;;;2.80;;
3683;SDS011;1858;48.716;9.648;2023-07-29T23:24:53;4.47;;;2.90;;
3683;SDS011;1858;48.716;9.648;2023-07-29T23:29:49;3.90;;;2.63;;
3683;SDS011;1858;48.716;9.648;2023-07-29T23:34:45;3.03;;;2.13;;
3683;SDS011;1858;48.716;9.648;2023-07-29T23:37:13;4.40;;;3.03;;
3683;SDS011;1858;48.716;9.648;2023-07-29T23:39:42;4.17;;;2.60;;
